createdAt,value
2022-11-23T00:01:37.778Z,3.90
2022-11-23T00:04:12.414Z,3.83
2022-11-23T00:06:40.119Z,3.72
2022-11-23T00:09:11.233Z,3.85
2022-11-23T00:11:41.217Z,3.78
2022-11-23T00:14:10.970Z,4.05
2022-11-23T00:16:37.754Z,3.83
2022-11-23T00:19:04.543Z,3.72
2022-11-23T00:21:33.179Z,4.82
2022-11-23T00:24:00.159Z,3.13
2022-11-23T00:26:27.503Z,3.08
2022-11-23T00:28:54.692Z,3.42
2022-11-23T00:31:25.660Z,3.60
2022-11-23T00:33:55.319Z,2.97
2022-11-23T00:36:25.581Z,4.00
2022-11-23T00:38:55.797Z,3.03
2022-11-23T00:41:26.485Z,3.45
2022-11-23T00:43:53.619Z,3.65
2022-11-23T00:46:24.408Z,3.72
2022-11-23T00:48:54.019Z,3.20
2022-11-23T00:51:29.275Z,3.33
2022-11-23T00:53:57.151Z,2.63
2022-11-23T00:56:26.686Z,2.85
2022-11-23T00:58:56.229Z,3.28
2022-11-23T01:01:27.201Z,3.47
2022-11-23T01:03:58.356Z,2.75
2022-11-23T01:06:37.097Z,2.75
2022-11-23T01:09:07.997Z,2.53
2022-11-23T01:11:35.365Z,2.25
2022-11-23T01:14:02.276Z,2.85
2022-11-23T01:16:36.714Z,2.92
2022-11-23T01:19:08.194Z,1.77
2022-11-23T01:21:36.287Z,2.00
2022-11-23T01:24:09.523Z,2.30
2022-11-23T01:26:38.850Z,2.47
2022-11-23T01:29:05.651Z,2.13
2022-11-23T01:31:32.796Z,3.35
2022-11-23T01:34:04.948Z,2.90
2022-11-23T01:36:35.072Z,2.53
2022-11-23T01:39:03.858Z,2.40
2022-11-23T01:41:37.532Z,2.22
2022-11-23T01:44:31.956Z,3.08
2022-11-23T01:47:05.738Z,1.48
2022-11-23T01:49:45.552Z,2.08
2022-11-23T01:52:20.084Z,2.28
2022-11-23T01:54:51.591Z,2.05
2022-11-23T01:57:28.107Z,1.95
2022-11-23T01:59:58.514Z,2.58
2022-11-23T02:02:30.088Z,1.60
2022-11-23T02:05:00.687Z,2.22
2022-11-23T02:07:29.384Z,2.35
2022-11-23T02:09:56.170Z,1.83
2022-11-23T02:12:22.933Z,1.58
2022-11-23T02:14:50.212Z,2.15
2022-11-23T02:17:19.454Z,1.95
2022-11-23T02:20:03.446Z,1.77
2022-11-23T02:23:04.212Z,2.38
2022-11-23T02:25:45.243Z,2.10
2022-11-23T02:28:24.967Z,2.63
2022-11-23T02:30:55.112Z,2.47
2022-11-23T02:33:25.344Z,2.03
2022-11-23T02:35:59.649Z,1.85
2022-11-23T02:38:33.441Z,2.38
2022-11-23T02:41:01.173Z,1.92
2022-11-23T02:43:28.056Z,1.90
2022-11-23T02:46:04.019Z,2.42
2022-11-23T02:48:30.736Z,2.03
2022-11-23T02:50:57.604Z,2.67
2022-11-23T02:53:24.450Z,2.13
2022-11-23T02:55:53.013Z,2.33
2022-11-23T02:58:19.794Z,1.58
2022-11-23T03:00:47.087Z,2.13
2022-11-23T03:03:17.153Z,2.10
2022-11-23T03:05:43.948Z,1.90
2022-11-23T03:08:10.760Z,2.25
2022-11-23T03:10:39.533Z,2.20
2022-11-23T03:13:06.307Z,3.00
2022-11-23T03:15:35.531Z,2.28
2022-11-23T03:18:04.569Z,1.90
2022-11-23T03:20:32.245Z,2.17
2022-11-23T03:22:59.085Z,2.45
2022-11-23T03:25:26.413Z,2.10
2022-11-23T03:27:55.781Z,2.08
2022-11-23T03:30:22.619Z,2.55
2022-11-23T03:32:50.140Z,2.17
2022-11-23T03:35:18.760Z,2.95
2022-11-23T03:38:03.849Z,2.55
2022-11-23T03:40:31.695Z,2.28
2022-11-23T03:43:19.682Z,2.30
2022-11-23T03:45:47.041Z,2.00
2022-11-23T03:48:14.624Z,2.67
2022-11-23T03:50:41.418Z,2.50
2022-11-23T03:53:08.634Z,2.53
2022-11-23T03:55:35.707Z,2.55
2022-11-23T03:58:06.019Z,2.30
2022-11-23T04:00:35.882Z,2.30
2022-11-23T04:03:03.891Z,2.25
2022-11-23T04:05:49.316Z,1.88
2022-11-23T04:08:36.009Z,1.98
2022-11-23T04:11:11.001Z,1.98
2022-11-23T04:13:40.987Z,1.73
2022-11-23T04:16:09.139Z,1.73
2022-11-23T04:18:37.604Z,1.88
2022-11-23T04:21:05.224Z,2.22
2022-11-23T04:23:31.955Z,2.10
2022-11-23T04:25:58.716Z,1.75
2022-11-23T04:28:25.523Z,1.83
2022-11-23T04:30:53.235Z,2.15
2022-11-23T04:33:20.052Z,1.60
2022-11-23T04:35:46.987Z,1.70
2022-11-23T04:38:14.394Z,1.90
2022-11-23T04:40:41.964Z,1.33
2022-11-23T04:43:12.070Z,2.67
2022-11-23T04:45:40.584Z,2.30
2022-11-23T04:48:13.420Z,2.17
2022-11-23T04:50:44.641Z,2.55
2022-11-23T04:53:16.743Z,1.83
2022-11-23T04:55:47.591Z,2.10
2022-11-23T04:58:15.638Z,2.40
2022-11-23T05:00:42.756Z,1.58
2022-11-23T05:03:11.479Z,2.63
2022-11-23T05:05:41.874Z,1.90
2022-11-23T05:08:09.765Z,2.72
2022-11-23T05:10:51.338Z,1.92
2022-11-23T05:13:19.093Z,2.58
2022-11-23T05:15:48.084Z,2.55
2022-11-23T05:18:20.371Z,1.83
2022-11-23T05:20:49.193Z,2.42
2022-11-23T05:23:17.011Z,2.75
2022-11-23T05:25:45.590Z,1.75
2022-11-23T05:28:39.197Z,2.20
2022-11-23T05:31:07.563Z,2.55
2022-11-23T05:33:34.363Z,2.17
2022-11-23T05:36:04.037Z,2.17
2022-11-23T05:38:36.632Z,2.30
2022-11-23T05:43:38.473Z,2.40
2022-11-23T05:46:07.906Z,2.35
2022-11-23T05:48:36.404Z,3.13
2022-11-23T05:53:42.122Z,2.97
2022-11-23T05:56:20.190Z,3.35
2022-11-23T05:59:08.005Z,5.53
2022-11-23T06:01:36.993Z,6.85
2022-11-23T06:04:06.851Z,5.53
2022-11-23T06:06:39.234Z,3.90
2022-11-23T06:09:06.013Z,3.50
2022-11-23T06:11:35.424Z,4.05
2022-11-23T06:14:13.980Z,2.92
2022-11-23T06:16:41.550Z,2.85
2022-11-23T06:19:21.245Z,3.45
2022-11-23T06:21:51.204Z,3.13
2022-11-23T06:24:25.000Z,2.72
2022-11-23T06:27:16.683Z,2.45
2022-11-23T06:29:47.838Z,2.85
2022-11-23T06:32:15.538Z,1.80
2022-11-23T06:34:43.074Z,3.33
2022-11-23T06:37:10.447Z,2.78
2022-11-23T06:39:37.332Z,2.30
2022-11-23T06:42:36.664Z,2.83
2022-11-23T06:44:53.114Z,2.33
2022-11-23T06:47:25.971Z,2.53
2022-11-23T06:49:53.626Z,3.38
2022-11-23T06:52:26.508Z,2.85
2022-11-23T06:54:53.981Z,2.92
2022-11-23T06:57:22.557Z,2.38
2022-11-23T06:59:49.719Z,2.15
2022-11-23T07:02:21.379Z,2.63
2022-11-23T07:04:48.591Z,2.38
2022-11-23T07:07:17.471Z,2.95
2022-11-23T07:09:50.959Z,2.15
2022-11-23T07:12:22.732Z,2.72
2022-11-23T07:14:49.509Z,2.47
2022-11-23T07:17:17.535Z,2.65
2022-11-23T07:19:45.043Z,2.50
2022-11-23T07:22:12.044Z,2.42
2022-11-23T07:24:45.286Z,2.58
2022-11-23T07:27:13.736Z,3.03
2022-11-23T07:29:40.522Z,2.60
2022-11-23T07:32:08.516Z,1.83
2022-11-23T07:34:35.649Z,1.95
2022-11-23T07:37:04.171Z,2.20
2022-11-23T07:39:55.574Z,2.53
2022-11-23T07:42:41.463Z,2.17
2022-11-23T07:45:09.293Z,1.73
2022-11-23T07:47:38.355Z,2.25
2022-11-23T07:50:11.233Z,2.10
2022-11-23T07:52:39.133Z,2.00
2022-11-23T07:55:06.711Z,1.92
2022-11-23T07:57:33.455Z,1.90
2022-11-23T08:00:00.176Z,1.80
2022-11-23T08:02:27.067Z,2.30
2022-11-23T08:04:53.866Z,2.08
2022-11-23T08:07:20.656Z,2.42
2022-11-23T08:09:47.378Z,2.80
2022-11-23T08:12:14.186Z,1.95
2022-11-23T08:14:40.986Z,1.88
2022-11-23T08:17:07.792Z,3.42
2022-11-23T08:19:34.680Z,2.25
2022-11-23T08:22:01.658Z,2.53
2022-11-23T08:24:28.408Z,2.72
2022-11-23T08:26:56.102Z,2.55
2022-11-23T08:29:22.918Z,2.10
2022-11-23T08:31:49.655Z,1.88
2022-11-23T08:34:18.016Z,2.08
2022-11-23T08:36:45.479Z,2.30
2022-11-23T08:39:14.228Z,2.67
2022-11-23T08:41:42.255Z,2.42
2022-11-23T08:44:11.256Z,2.50
2022-11-23T08:46:39.071Z,2.22
2022-11-23T08:49:07.372Z,2.50
2022-11-23T08:51:36.072Z,2.60
2022-11-23T08:54:02.878Z,2.50
2022-11-23T08:56:29.610Z,1.60
2022-11-23T08:58:56.314Z,1.83
2022-11-23T09:01:23.755Z,3.17
2022-11-23T09:03:50.634Z,2.20
2022-11-23T09:06:17.520Z,2.35
2022-11-23T09:08:44.298Z,1.92
2022-11-23T09:11:14.175Z,2.17
2022-11-23T09:13:41.157Z,2.20
2022-11-23T09:16:08.865Z,2.13
2022-11-23T09:18:36.649Z,2.22
2022-11-23T09:21:05.709Z,2.15
2022-11-23T09:23:32.690Z,2.08
2022-11-23T09:26:04.610Z,2.38
2022-11-23T09:28:33.121Z,1.95
2022-11-23T09:31:04.696Z,2.58
2022-11-23T09:33:31.621Z,2.15
2022-11-23T09:36:01.495Z,2.47
2022-11-23T09:38:54.698Z,2.20
2022-11-23T09:42:17.799Z,2.70
2022-11-23T09:45:11.655Z,1.90
2022-11-23T09:47:53.456Z,2.42
2022-11-23T09:50:27.027Z,2.65
2022-11-23T09:52:54.307Z,2.38
2022-11-23T09:55:45.511Z,2.05
2022-11-23T10:01:02.021Z,2.40
2022-11-23T10:03:37.076Z,2.55
2022-11-23T10:06:19.596Z,2.72
2022-11-23T10:09:15.982Z,2.22
2022-11-23T10:12:19.747Z,2.33
2022-11-23T10:17:45.264Z,2.45
2022-11-23T10:20:58.425Z,2.22
2022-11-23T10:23:44.189Z,2.20
2022-11-23T10:26:18.367Z,1.80
2022-11-23T10:28:47.994Z,1.73
2022-11-23T10:31:26.055Z,1.90
2022-11-23T10:34:08.365Z,1.88
2022-11-23T10:36:37.328Z,2.40
2022-11-23T10:39:23.528Z,1.80
2022-11-23T10:41:52.953Z,2.30
2022-11-23T10:44:36.975Z,2.40
2022-11-23T10:47:05.232Z,2.10
2022-11-23T10:49:35.416Z,1.65
2022-11-23T10:52:33.399Z,1.98
2022-11-23T10:55:06.405Z,2.20
2022-11-23T10:57:51.295Z,1.50
2022-11-23T11:00:30.079Z,1.65
2022-11-23T11:02:59.519Z,1.92
2022-11-23T11:06:09.590Z,1.50
2022-11-23T11:08:34.426Z,2.65
2022-11-23T11:11:21.181Z,1.77
2022-11-23T11:13:49.459Z,1.77
2022-11-23T11:16:26.981Z,2.30
2022-11-23T11:18:53.970Z,2.22
2022-11-23T11:21:27.305Z,2.17
2022-11-23T11:24:03.505Z,1.75
2022-11-23T11:26:35.882Z,1.70
2022-11-23T11:29:10.000Z,2.72
2022-11-23T11:31:48.396Z,1.50
2022-11-23T11:34:31.741Z,1.48
2022-11-23T11:37:19.343Z,1.88
2022-11-23T11:40:24.155Z,1.52
2022-11-23T11:42:59.966Z,1.65
2022-11-23T11:46:27.956Z,1.77
2022-11-23T11:49:05.827Z,1.73
2022-11-23T11:51:42.934Z,1.55
2022-11-23T11:54:31.926Z,1.45
2022-11-23T11:57:28.031Z,1.67
2022-11-23T11:59:58.253Z,1.65
2022-11-23T12:02:32.159Z,1.60
2022-11-23T12:05:56.213Z,1.17
2022-11-23T12:08:53.596Z,1.35
2022-11-23T12:13:47.248Z,1.08
2022-11-23T12:16:29.849Z,1.70
2022-11-23T12:19:20.946Z,1.15
2022-11-23T12:25:05.100Z,1.13
2022-11-23T12:27:48.643Z,1.70
2022-11-23T12:30:31.177Z,1.20
2022-11-23T12:33:11.347Z,1.42
2022-11-23T12:36:26.596Z,1.00
2022-11-23T12:39:33.276Z,1.33
2022-11-23T12:42:28.302Z,1.13
2022-11-23T12:45:19.333Z,1.40
2022-11-23T12:50:55.249Z,1.10
2022-11-23T12:53:47.456Z,0.98
2022-11-23T12:56:54.842Z,1.50
2022-11-23T12:59:26.591Z,1.15
2022-11-23T13:02:04.758Z,1.17
2022-11-23T13:04:55.753Z,1.15
2022-11-23T13:07:58.947Z,1.45
2022-11-23T13:10:45.574Z,1.23
2022-11-23T13:13:20.918Z,1.13
2022-11-23T13:16:05.988Z,0.98
2022-11-23T13:18:53.829Z,0.77
2022-11-23T13:21:39.658Z,1.08
2022-11-23T13:24:33.897Z,0.98
2022-11-23T13:27:13.007Z,1.10
2022-11-23T13:30:01.303Z,1.30
2022-11-23T13:32:39.984Z,1.70
2022-11-23T13:35:18.894Z,1.30
2022-11-23T13:37:57.951Z,1.00
2022-11-23T13:40:36.717Z,1.20
2022-11-23T13:43:21.634Z,1.42
2022-11-23T13:46:37.359Z,1.10
2022-11-23T13:49:24.268Z,1.50
2022-11-23T13:52:24.292Z,1.15
2022-11-23T13:55:25.980Z,1.52
2022-11-23T13:58:23.721Z,1.13
2022-11-23T14:00:51.704Z,1.30
2022-11-23T14:03:49.638Z,1.38
2022-11-23T14:06:56.791Z,1.52
2022-11-23T14:09:39.029Z,1.70
2022-11-23T14:12:18.843Z,1.25
2022-11-23T14:15:26.345Z,1.10
2022-11-23T14:18:39.578Z,1.55
2022-11-23T14:21:19.224Z,1.60
2022-11-23T14:24:11.194Z,1.67
2022-11-23T14:27:48.640Z,1.80
2022-11-23T14:31:09.600Z,1.90
2022-11-23T14:34:18.472Z,1.67
2022-11-23T14:37:45.789Z,1.30
2022-11-23T14:40:53.183Z,1.27
2022-11-23T14:43:21.516Z,2.83
2022-11-23T14:45:48.752Z,1.92
2022-11-23T14:48:32.988Z,1.80
2022-11-23T14:51:04.304Z,2.08
2022-11-23T14:53:46.734Z,1.73
2022-11-23T14:56:35.619Z,1.70
2022-11-23T14:59:09.422Z,2.47
2022-11-23T15:01:38.132Z,1.83
2022-11-23T15:04:21.207Z,2.00
2022-11-23T15:06:54.483Z,1.90
2022-11-23T15:10:16.977Z,1.63
2022-11-23T15:12:46.905Z,1.90
2022-11-23T15:15:37.933Z,2.17
2022-11-23T15:18:04.862Z,1.75
2022-11-23T15:20:43.779Z,2.22
2022-11-23T15:23:31.930Z,1.67
2022-11-23T15:26:02.555Z,2.92
2022-11-23T15:28:34.842Z,2.35
2022-11-23T15:31:01.837Z,2.60
2022-11-23T15:33:32.751Z,2.38
2022-11-23T15:35:59.778Z,2.55
2022-11-23T15:38:27.855Z,2.40
2022-11-23T15:41:05.331Z,1.88
2022-11-23T15:43:32.144Z,2.90
2022-11-23T15:46:05.861Z,2.33
2022-11-23T15:48:36.605Z,2.17
2022-11-23T15:51:08.674Z,2.28
2022-11-23T15:53:54.706Z,2.42
2022-11-23T15:56:36.010Z,1.98
2022-11-23T15:59:16.132Z,1.98
2022-11-23T16:01:44.245Z,2.22
2022-11-23T16:04:43.692Z,1.92
2022-11-23T16:07:22.842Z,2.50
2022-11-23T16:10:24.240Z,1.88
2022-11-23T16:12:59.240Z,2.17
2022-11-23T16:15:32.582Z,2.20
2022-11-23T16:18:06.084Z,2.58
2022-11-23T16:20:33.312Z,2.88
2022-11-23T16:23:01.393Z,2.75
2022-11-23T16:25:35.774Z,2.67
2022-11-23T16:28:14.202Z,2.42
2022-11-23T16:30:44.293Z,2.70
2022-11-23T16:33:18.298Z,2.05
2022-11-23T16:35:48.174Z,2.10
2022-11-23T16:38:15.191Z,2.17
2022-11-23T16:40:43.607Z,2.88
2022-11-23T16:43:12.044Z,2.42
2022-11-23T16:45:41.859Z,2.10
2022-11-23T16:48:26.804Z,1.58
2022-11-23T16:50:56.105Z,2.38
2022-11-23T16:53:26.833Z,2.10
2022-11-23T16:55:56.560Z,2.17
2022-11-23T16:58:25.784Z,2.28
2022-11-23T17:00:52.564Z,1.80
2022-11-23T17:03:21.249Z,2.22
2022-11-23T17:05:48.538Z,2.58
2022-11-23T17:08:21.588Z,2.50
2022-11-23T17:10:51.445Z,2.35
2022-11-23T17:13:26.713Z,2.72
2022-11-23T17:15:54.580Z,2.40
2022-11-23T17:18:22.292Z,2.75
2022-11-23T17:20:49.353Z,2.38
2022-11-23T17:23:16.197Z,2.65
2022-11-23T17:25:43.091Z,2.80
2022-11-23T17:28:22.286Z,2.80
2022-11-23T17:30:49.909Z,2.25
2022-11-23T17:33:17.251Z,3.20
2022-11-23T17:35:44.139Z,3.45
2022-11-23T17:38:19.934Z,2.38
2022-11-23T17:40:46.897Z,3.08
2022-11-23T17:43:14.771Z,2.38
2022-11-23T17:45:42.811Z,2.42
2022-11-23T17:48:15.833Z,2.97
2022-11-23T17:50:42.652Z,3.13
2022-11-23T17:53:10.592Z,3.10
2022-11-23T17:55:38.227Z,3.10
2022-11-23T17:58:05.921Z,4.65
2022-11-23T18:00:33.609Z,3.22
2022-11-23T18:03:00.398Z,3.53
2022-11-23T18:05:27.428Z,2.20
2022-11-23T18:07:54.211Z,2.20
2022-11-23T18:10:21.539Z,2.42
2022-11-23T18:12:48.467Z,3.83
2022-11-23T18:15:15.387Z,3.13
2022-11-23T18:17:42.499Z,3.38
2022-11-23T18:20:10.378Z,3.17
2022-11-23T18:22:37.694Z,5.13
2022-11-23T18:25:04.999Z,3.58
2022-11-23T18:27:31.868Z,3.00
2022-11-23T18:29:58.641Z,3.33
2022-11-23T18:32:25.447Z,3.40
2022-11-23T18:34:52.145Z,3.25
2022-11-23T18:37:19.099Z,3.50
2022-11-23T18:39:46.036Z,3.55
2022-11-23T18:42:12.846Z,4.25
2022-11-23T18:44:39.619Z,3.83
2022-11-23T18:47:06.426Z,3.05
2022-11-23T18:49:33.493Z,4.47
2022-11-23T18:52:00.420Z,3.88
2022-11-23T18:54:27.224Z,4.38
2022-11-23T18:56:54.148Z,3.90
2022-11-23T18:59:57.294Z,4.93
2022-11-23T19:02:12.592Z,3.90
2022-11-23T19:04:39.821Z,3.83
2022-11-23T19:07:06.857Z,4.05
2022-11-23T19:09:34.599Z,4.65
2022-11-23T19:12:01.777Z,3.10
2022-11-23T19:14:28.542Z,3.90
2022-11-23T19:16:55.511Z,3.83
2022-11-23T19:19:22.442Z,4.47
2022-11-23T19:21:49.386Z,3.72
2022-11-23T19:24:16.167Z,4.20
2022-11-23T19:26:42.956Z,3.72
2022-11-23T19:29:09.839Z,4.65
2022-11-23T19:31:36.671Z,4.25
2022-11-23T19:34:06.183Z,3.70
2022-11-23T19:36:36.496Z,3.80
2022-11-23T19:39:08.333Z,3.72
2022-11-23T19:41:35.222Z,3.78
2022-11-23T19:44:02.343Z,4.10
2022-11-23T19:46:31.384Z,3.78
2022-11-23T19:48:59.104Z,3.67
2022-11-23T19:51:27.513Z,3.72
2022-11-23T19:53:57.518Z,3.40
2022-11-23T19:56:27.567Z,4.03
2022-11-23T19:58:57.799Z,3.63
2022-11-23T20:01:28.607Z,3.55
2022-11-23T20:03:57.861Z,3.53
2022-11-23T20:06:28.305Z,4.53
2022-11-23T20:08:56.731Z,4.07
2022-11-23T20:11:24.751Z,3.97
2022-11-23T20:13:51.533Z,3.80
2022-11-23T20:16:20.876Z,3.53
2022-11-23T20:18:54.626Z,4.43
2022-11-23T20:21:21.389Z,4.10
2022-11-23T20:23:50.277Z,3.83
2022-11-23T20:26:20.680Z,4.18
2022-11-23T20:28:52.732Z,4.57
2022-11-23T20:31:26.269Z,3.80
2022-11-23T20:33:54.041Z,3.25
2022-11-23T20:36:24.713Z,2.97
2022-11-23T20:38:53.720Z,3.28
2022-11-23T20:41:32.215Z,4.13
2022-11-23T20:44:20.920Z,4.18
2022-11-23T20:47:03.857Z,3.63
2022-11-23T20:49:32.012Z,3.58
2022-11-23T20:52:00.005Z,3.90
2022-11-23T20:54:27.075Z,4.28
2022-11-23T20:56:53.967Z,3.40
2022-11-23T20:59:20.826Z,3.65
2022-11-23T21:01:47.634Z,3.75
2022-11-23T21:04:14.471Z,4.07
2022-11-23T21:06:41.393Z,3.58
2022-11-23T21:09:10.277Z,3.72
2022-11-23T21:11:55.913Z,4.20
2022-11-23T21:14:27.606Z,4.20
2022-11-23T21:17:00.281Z,3.60
2022-11-23T21:19:37.477Z,2.83
2022-11-23T21:22:14.840Z,3.63
2022-11-23T21:24:42.223Z,4.57
2022-11-23T21:27:13.242Z,3.47
2022-11-23T21:29:40.143Z,4.25
2022-11-23T21:32:06.942Z,4.18
2022-11-23T21:34:34.285Z,3.60
2022-11-23T21:37:01.725Z,4.57
2022-11-23T21:39:31.266Z,4.32
2022-11-23T21:41:58.220Z,4.30
2022-11-23T21:44:25.000Z,4.20
2022-11-23T21:46:52.098Z,4.20
2022-11-23T21:49:19.052Z,5.00
2022-11-23T21:51:46.570Z,3.20
2022-11-23T21:54:15.679Z,3.17
2022-11-23T21:56:44.858Z,4.00
2022-11-23T21:59:12.722Z,2.58
2022-11-23T22:01:40.737Z,3.08
2022-11-23T22:04:13.581Z,3.95
2022-11-23T22:06:42.159Z,3.92
2022-11-23T22:09:11.195Z,3.70
2022-11-23T22:11:41.129Z,3.65
2022-11-23T22:14:12.692Z,3.47
2022-11-23T22:16:44.350Z,3.75
2022-11-23T22:19:13.661Z,2.53
2022-11-23T22:21:42.603Z,4.05
2022-11-23T22:24:18.359Z,4.28
2022-11-23T22:26:47.540Z,3.50
2022-11-23T22:29:15.025Z,3.30
2022-11-23T22:31:41.937Z,3.80
2022-11-23T22:34:12.542Z,3.90
2022-11-23T22:36:39.521Z,3.58
2022-11-23T22:39:06.950Z,3.42
2022-11-23T22:41:37.010Z,3.47
2022-11-23T22:44:07.727Z,2.28
2022-11-23T22:46:35.028Z,3.28
2022-11-23T22:49:02.006Z,2.67
2022-11-23T22:51:29.807Z,3.75
2022-11-23T22:53:59.099Z,3.85
2022-11-23T22:56:27.642Z,3.63
2022-11-23T22:58:54.819Z,3.70
2022-11-23T23:01:29.003Z,3.08
2022-11-23T23:03:58.873Z,2.78
2022-11-23T23:06:29.245Z,4.10
2022-11-23T23:09:01.257Z,3.53
2022-11-23T23:11:31.912Z,4.07
2022-11-23T23:14:00.647Z,3.63
2022-11-23T23:16:28.704Z,3.08
2022-11-23T23:18:57.070Z,3.95
2022-11-23T23:21:25.604Z,2.33
2022-11-23T23:23:55.752Z,3.58
2022-11-23T23:26:25.207Z,2.75
2022-11-23T23:28:57.380Z,3.45
2022-11-23T23:31:25.366Z,3.70
2022-11-23T23:33:53.752Z,2.35
2022-11-23T23:36:23.512Z,3.83
2022-11-23T23:38:51.198Z,3.42
2022-11-23T23:41:18.922Z,2.75
2022-11-23T23:43:47.922Z,3.97
2022-11-23T23:46:14.837Z,2.83
2022-11-23T23:48:41.967Z,2.30
2022-11-23T23:51:18.304Z,2.60
2022-11-23T23:53:46.397Z,2.10
2022-11-23T23:56:27.917Z,2.40
2022-11-23T23:58:56.885Z,2.85
